Time;durP1;ratioP1;P1;durP2;ratioP2;P2;SDS_P1;SDS_P2;PMS_P1;PMS_P2;Temp;Humidity;BMP_temperature;BMP_pressure;BME280_temperature;BME280_humidity;BME280_pressure;Samples;Min_cycle;Max_cycle;Signal;HPM_P1;HPM_P2
2022/07/11 00:02:28;;;;;;;6.63;1.90;;;14.50;99.90;;;;;;5004318;28;20058;-75
2022/07/11 00:04:53;;;;;;;5.35;1.58;;;14.50;99.90;;;;;;5005104;28;20027;-75
2022/07/11 00:07:19;;;;;;;4.35;1.45;;;14.50;99.90;;;;;;5016071;28;20030;-81
2022/07/11 00:09:45;;;;;;;10.93;1.20;;;14.50;99.90;;;;;;5028614;28;20036;-87
2022/07/11 00:12:12;;;;;;;6.05;1.38;;;14.50;99.90;;;;;;5022526;28;20102;-84
2022/07/11 00:14:39;;;;;;;5.45;1.67;;;14.40;99.90;;;;;;5019404;28;20053;-87
2022/07/11 00:17:08;;;;;;;3.38;1.35;;;14.40;99.90;;;;;;4999201;28;20565;-76
2022/07/11 00:19:35;;;;;;;9.07;1.70;;;14.40;99.90;;;;;;5000297;28;20049;-79
2022/07/11 00:22:00;;;;;;;6.18;1.10;;;14.40;99.90;;;;;;5001897;28;20046;-76
2022/07/11 00:24:26;;;;;;;8.25;1.17;;;14.40;99.90;;;;;;4998697;28;20108;-79
2022/07/11 00:26:52;;;;;;;3.53;1.05;;;14.40;99.90;;;;;;5000095;28;20039;-79
2022/07/11 00:29:17;;;;;;;6.40;1.40;;;14.40;99.90;;;;;;5003755;28;20022;-79
2022/07/11 00:31:43;;;;;;;7.03;1.40;;;14.30;99.90;;;;;;4998578;28;20395;-79
2022/07/11 00:34:09;;;;;;;5.38;1.20;;;14.30;99.90;;;;;;5000616;28;20077;-76
2022/07/11 00:36:35;;;;;;;6.85;1.70;;;14.30;99.90;;;;;;4994542;28;20029;-76
2022/07/11 00:39:02;;;;;;;4.97;1.35;;;14.30;99.90;;;;;;4999821;28;20034;-76
2022/07/11 00:41:27;;;;;;;6.53;1.23;;;14.30;99.90;;;;;;4999096;28;20056;-76
2022/07/11 00:43:58;;;;;;;5.63;1.50;;;14.30;99.90;;;;;;5000567;28;20069;-77
2022/07/11 00:46:25;;;;;;;6.28;1.63;;;14.30;99.90;;;;;;4998481;28;20037;-76
2022/07/11 00:48:52;;;;;;;5.40;1.23;;;14.30;99.90;;;;;;5021101;28;20449;-75
2022/07/11 00:51:22;;;;;;;5.15;1.00;;;14.30;99.90;;;;;;5000422;28;21200;-77
2022/07/11 00:53:53;;;;;;;3.08;0.90;;;14.20;99.90;;;;;;4995357;28;20040;-78
2022/07/11 00:56:20;;;;;;;;;;;14.30;99.90;;;;;;4995746;28;20030;-76
2022/07/11 00:58:49;;;;;;;3.58;1.05;;;14.30;99.90;;;;;;4999640;28;19936;-79
2022/07/11 01:01:15;;;;;;;3.60;1.10;;;14.20;99.90;;;;;;4999012;28;20026;-85
2022/07/11 01:03:43;;;;;;;3.97;1.00;;;14.20;99.90;;;;;;5002023;28;20363;-76
2022/07/11 01:06:09;;;;;;;5.47;1.13;;;14.20;99.90;;;;;;5013416;28;20058;-76
2022/07/11 01:08:37;;;;;;;3.42;0.95;;;14.20;99.90;;;;;;4998940;28;20030;-78
2022/07/11 01:11:04;;;;;;;5.20;1.10;;;14.20;99.90;;;;;;4994671;28;20034;-79
2022/07/11 01:13:32;;;;;;;5.57;1.35;;;14.20;99.90;;;;;;4996387;28;20022;-79
2022/07/11 01:16:16;;;;;;;5.32;1.10;;;14.20;99.90;;;;;;4982121;28;20022;-75
2022/07/11 01:18:47;;;;;;;3.47;0.93;;;14.10;99.90;;;;;;4997735;28;20104;-76
2022/07/11 01:21:48;;;;;;;3.92;0.90;;;14.10;99.90;;;;;;4996203;28;20053;-77
2022/07/11 01:24:14;;;;;;;;;;;14.10;99.90;;;;;;5015181;28;20029;-76
2022/07/11 01:26:40;;;;;;;4.47;1.20;;;14.10;99.90;;;;;;5004086;28;19925;-75
2022/07/11 01:29:10;;;;;;;5.88;1.55;;;14.10;99.90;;;;;;4999355;28;20093;-78
2022/07/11 01:31:38;;;;;;;4.33;1.30;;;14.10;99.90;;;;;;4995856;28;20101;-76
2022/07/11 01:34:04;;;;;;;3.63;1.42;;;14.10;99.90;;;;;;4998469;28;20112;-79
2022/07/11 01:36:31;;;;;;;6.50;1.42;;;14.10;99.90;;;;;;5000911;28;20389;-79
2022/07/11 01:38:56;;;;;;;7.07;1.48;;;14.10;99.90;;;;;;4997760;28;20037;-76
2022/07/11 01:41:22;;;;;;;6.90;1.58;;;14.10;99.90;;;;;;4994885;28;20018;-77
2022/07/11 01:43:48;;;;;;;9.30;2.05;;;14.10;99.90;;;;;;4999568;28;20030;-79
2022/07/11 01:46:13;;;;;;;5.07;1.13;;;14.00;99.90;;;;;;4996699;28;20483;-87
2022/07/11 01:48:39;;;;;;;2.88;1.17;;;14.00;99.90;;;;;;4998396;28;20945;-80
2022/07/11 01:51:05;;;;;;;4.22;1.25;;;14.00;99.90;;;;;;4999029;28;20037;-78
2022/07/11 01:53:31;;;;;;;5.38;1.42;;;14.00;99.90;;;;;;4994671;28;20113;-76
2022/07/11 01:55:57;;;;;;;2.30;1.00;;;13.90;99.90;;;;;;4999403;28;20030;-75
2022/07/11 01:58:24;;;;;;;2.38;1.17;;;13.90;99.90;;;;;;5002496;28;20034;-75
2022/07/11 02:00:49;;;;;;;8.85;1.73;;;13.90;99.90;;;;;;4994260;28;20060;-80
2022/07/11 02:03:16;;;;;;;5.70;1.73;;;13.90;99.90;;;;;;4995435;28;20065;-77
2022/07/11 02:05:42;;;;;;;7.07;1.83;;;13.90;99.90;;;;;;4992302;28;20030;-81
2022/07/11 02:08:11;;;;;;;3.83;1.50;;;13.90;99.90;;;;;;5001387;28;20034;-76
2022/07/11 02:10:48;;;;;;;5.05;1.38;;;13.80;99.90;;;;;;4998550;28;20042;-78
2022/07/11 02:13:15;;;;;;;3.70;1.00;;;13.80;99.90;;;;;;4998149;28;20026;-77
2022/07/11 02:15:43;;;;;;;5.57;1.25;;;13.80;99.90;;;;;;4997244;28;20030;-79
2022/07/11 02:18:10;;;;;;;4.13;1.50;;;13.90;99.90;;;;;;5001136;28;20069;-76
2022/07/11 02:20:39;;;;;;;4.97;1.30;;;13.90;99.90;;;;;;4995773;28;20026;-75
2022/07/11 02:23:05;;;;;;;9.27;1.35;;;13.90;99.90;;;;;;4997418;28;20097;-77
2022/07/11 02:25:34;;;;;;;3.83;1.20;;;13.90;99.90;;;;;;5001010;28;20409;-75
2022/07/11 02:28:01;;;;;;;6.70;1.20;;;13.90;99.90;;;;;;4996934;28;20556;-75
2022/07/11 02:30:28;;;;;;;4.85;1.48;;;13.90;99.90;;;;;;4995693;28;20034;-81
2022/07/11 02:32:53;;;;;;;3.00;1.00;;;13.80;99.90;;;;;;4997726;28;20031;-75
2022/07/11 02:35:20;;;;;;;6.05;1.45;;;13.80;99.90;;;;;;4995346;28;20021;-75
2022/07/11 02:37:45;;;;;;;5.10;1.23;;;13.80;99.90;;;;;;4994105;28;20468;-75
2022/07/11 02:40:11;;;;;;;5.90;1.27;;;13.80;99.90;;;;;;4996935;28;20045;-76
2022/07/11 02:42:38;;;;;;;12.32;1.50;;;13.80;99.90;;;;;;4997931;28;20125;-75
2022/07/11 02:45:04;;;;;;;6.50;1.20;;;13.80;99.90;;;;;;4981515;28;20383;-79
2022/07/11 02:47:30;;;;;;;5.72;1.20;;;13.70;99.90;;;;;;5002085;28;20101;-76
2022/07/11 02:49:56;;;;;;;2.90;1.30;;;13.70;99.90;;;;;;5000593;28;20113;-76
2022/07/11 02:52:21;;;;;;;7.78;1.60;;;13.70;99.90;;;;;;5001374;28;20064;-76
2022/07/11 02:54:48;;;;;;;2.60;0.93;;;13.70;99.90;;;;;;5001765;28;20030;-79
2022/07/11 02:57:13;;;;;;;5.90;1.23;;;13.70;99.90;;;;;;4998917;28;20044;-76
2022/07/11 02:59:39;;;;;;;9.20;1.60;;;13.70;99.90;;;;;;5000347;28;20038;-77
2022/07/11 03:02:05;;;;;;;6.95;1.40;;;13.70;99.90;;;;;;4998944;28;20030;-75
2022/07/11 03:04:33;;;;;;;6.13;1.58;;;13.70;99.90;;;;;;5003438;28;20463;-76
2022/07/11 03:06:59;;;;;;;5.78;1.65;;;13.70;99.90;;;;;;5002351;28;20322;-76
2022/07/11 03:09:25;;;;;;;6.82;1.30;;;13.70;99.90;;;;;;4997704;28;20022;-77
2022/07/11 03:11:52;;;;;;;5.35;1.70;;;13.80;99.90;;;;;;5000955;28;20033;-75
2022/07/11 03:14:18;;;;;;;4.72;1.23;;;13.80;99.90;;;;;;4999631;28;20109;-78
2022/07/11 03:16:43;;;;;;;6.10;1.50;;;13.80;99.90;;;;;;5002737;28;20113;-75
2022/07/11 03:19:09;;;;;;;4.10;1.35;;;13.80;99.90;;;;;;4996406;28;20034;-74
2022/07/11 03:21:35;;;;;;;5.30;1.48;;;13.80;99.90;;;;;;5002048;28;20042;-76
2022/07/11 03:24:01;;;;;;;8.63;1.75;;;13.80;99.90;;;;;;5000957;28;20030;-76
2022/07/11 03:26:27;;;;;;;5.30;1.27;;;13.70;99.90;;;;;;5005394;28;20033;-80
2022/07/11 03:28:52;;;;;;;8.50;1.48;;;13.80;99.90;;;;;;5002517;28;20375;-83
2022/07/11 03:31:18;;;;;;;9.68;1.90;;;13.70;99.90;;;;;;4998243;28;20030;-75
2022/07/11 03:33:44;;;;;;;7.05;1.30;;;13.70;99.90;;;;;;5002338;28;20104;-76
2022/07/11 03:36:11;;;;;;;6.80;1.65;;;13.70;99.90;;;;;;4996329;28;20061;-79
2022/07/11 03:38:38;;;;;;;6.15;1.33;;;13.70;99.90;;;;;;5001682;28;20119;-76
2022/07/11 03:41:04;;;;;;;4.53;1.27;;;13.70;99.90;;;;;;4999734;28;20371;-79
2022/07/11 03:43:30;;;;;;;7.63;1.90;;;13.70;99.90;;;;;;5004095;28;20037;-75
2022/07/11 03:45:56;;;;;;;4.35;1.58;;;13.70;99.90;;;;;;5000123;28;20475;-75
2022/07/11 03:48:23;;;;;;;7.38;1.90;;;13.70;99.90;;;;;;4997971;28;20040;-75
2022/07/11 03:50:49;;;;;;;7.78;1.80;;;13.70;99.90;;;;;;4994637;28;20021;-80
2022/07/11 03:53:15;;;;;;;8.43;1.88;;;13.70;99.90;;;;;;5002319;28;20018;-78
2022/07/11 03:55:41;;;;;;;4.40;1.50;;;13.70;99.90;;;;;;4985975;28;20501;-81
2022/07/11 03:58:06;;;;;;;7.95;1.63;;;13.70;99.90;;;;;;4993897;28;20077;-77
2022/07/11 04:00:32;;;;;;;7.68;1.63;;;13.70;99.90;;;;;;4998380;28;20057;-79
2022/07/11 04:02:59;;;;;;;4.75;1.65;;;13.70;99.90;;;;;;5000562;28;20030;-76
2022/07/11 04:05:26;;;;;;;4.82;1.58;;;13.80;99.90;;;;;;5001053;28;20033;-78
2022/07/11 04:07:52;;;;;;;6.13;1.58;;;13.70;99.90;;;;;;4998041;28;20177;-81
2022/07/11 04:10:18;;;;;;;6.55;1.88;;;13.80;99.90;;;;;;4994940;28;20656;-83
2022/07/11 04:12:44;;;;;;;5.47;1.85;;;13.80;99.90;;;;;;4997645;28;20068;-78
2022/07/11 04:15:11;;;;;;;2.60;1.25;;;13.70;99.90;;;;;;5002863;28;20027;-76
2022/07/11 04:17:37;;;;;;;5.18;1.60;;;13.80;99.90;;;;;;4999381;28;20090;-79
2022/07/11 04:20:04;;;;;;;5.68;2.28;;;13.80;99.90;;;;;;5014788;28;20023;-77
2022/07/11 04:22:30;;;;;;;5.47;1.70;;;13.70;99.90;;;;;;4994528;28;20525;-76
2022/07/11 04:24:56;;;;;;;7.18;1.92;;;13.70;99.90;;;;;;5000858;28;20022;-76
2022/07/11 04:27:21;;;;;;;6.43;1.35;;;13.80;99.90;;;;;;4998823;28;20096;-76
2022/07/11 04:29:47;;;;;;;9.77;1.58;;;13.70;99.90;;;;;;4997852;28;20449;-77
2022/07/11 04:32:13;;;;;;;7.45;1.67;;;13.80;99.90;;;;;;4998317;28;20018;-75
2022/07/11 04:34:38;;;;;;;4.32;1.48;;;13.80;99.90;;;;;;4995675;28;20030;-77
2022/07/11 04:37:04;;;;;;;7.63;2.30;;;13.90;99.90;;;;;;4996341;28;20027;-77
2022/07/11 04:39:32;;;;;;;8.00;2.60;;;13.90;99.90;;;;;;5002138;28;20038;-77
2022/07/11 04:41:58;;;;;;;5.00;1.60;;;13.90;99.90;;;;;;4997271;28;20422;-76
2022/07/11 04:44:24;;;;;;;10.35;2.05;;;14.00;99.90;;;;;;4999665;28;20088;-79
2022/07/11 04:46:50;;;;;;;7.45;1.60;;;14.00;99.90;;;;;;5001145;28;20034;-82
2022/07/11 04:49:15;;;;;;;8.23;1.45;;;14.10;99.90;;;;;;4998112;28;20088;-79
2022/07/11 04:51:41;;;;;;;4.10;1.30;;;14.10;99.90;;;;;;5001007;28;20037;-76
2022/07/11 04:54:08;;;;;;;11.35;2.00;;;14.70;99.90;;;;;;4995369;28;20034;-79
2022/07/11 04:56:34;;;;;;;7.03;1.42;;;14.60;99.90;;;;;;4998909;28;20034;-77
2022/07/11 04:59:00;;;;;;;5.68;1.73;;;15.40;99.90;;;;;;4997158;28;20034;-78
2022/07/11 05:01:28;;;;;;;5.25;1.90;;;15.10;99.90;;;;;;4996442;28;20026;-78
2022/07/11 05:03:54;;;;;;;4.38;1.60;;;14.90;99.90;;;;;;5002312;28;20611;-79
2022/07/11 05:06:21;;;;;;;6.40;1.50;;;14.80;99.90;;;;;;4996745;28;20112;-77
2022/07/11 05:08:47;;;;;;;7.70;1.88;;;14.80;99.90;;;;;;4998327;28;20026;-76
2022/07/11 05:11:16;;;;;;;5.65;1.90;;;14.70;99.90;;;;;;4998177;28;20105;-77
2022/07/11 05:13:41;;;;;;;8.02;2.10;;;14.70;99.90;;;;;;4996144;28;20021;-77
2022/07/11 05:16:07;;;;;;;7.20;1.95;;;14.60;99.90;;;;;;4997044;28;20029;-78
2022/07/11 05:18:34;;;;;;;6.88;1.52;;;14.70;99.90;;;;;;4998332;28;20038;-78
2022/07/11 05:20:59;;;;;;;9.05;1.75;;;14.60;99.90;;;;;;4991871;28;20044;-77
2022/07/11 05:23:25;;;;;;;8.93;1.92;;;14.70;99.90;;;;;;4998131;28;20030;-80
2022/07/11 05:25:52;;;;;;;14.55;2.92;;;14.70;99.90;;;;;;4999875;28;20494;-77
2022/07/11 05:28:17;;;;;;;8.90;1.52;;;14.70;99.90;;;;;;4996706;28;20025;-80
2022/07/11 05:30:43;;;;;;;7.90;1.60;;;14.70;99.90;;;;;;4984045;28;20058;-82
2022/07/11 05:33:08;;;;;;;10.02;1.95;;;14.70;99.90;;;;;;4993347;28;20112;-81
2022/07/11 05:35:34;;;;;;;10.68;1.70;;;14.70;99.90;;;;;;4994158;28;20025;-77
2022/07/11 05:38:00;;;;;;;5.68;1.65;;;14.70;99.90;;;;;;4999075;28;20157;-76
2022/07/11 05:40:26;;;;;;;9.85;1.42;;;14.80;99.90;;;;;;4995095;28;20064;-79
2022/07/11 05:42:51;;;;;;;7.97;1.45;;;14.80;99.90;;;;;;4998346;28;20076;-76
2022/07/11 05:45:17;;;;;;;10.68;1.90;;;14.80;99.90;;;;;;5000688;28;20401;-79
2022/07/11 05:47:42;;;;;;;9.70;1.90;;;14.90;99.90;;;;;;4998021;28;20506;-80
2022/07/11 05:50:08;;;;;;;6.70;1.75;;;14.90;99.90;;;;;;4996203;28;20028;-77
2022/07/11 05:52:34;;;;;;;9.52;1.77;;;14.90;99.90;;;;;;4994651;28;20102;-76
2022/07/11 05:55:00;;;;;;;6.25;2.00;;;15.00;99.90;;;;;;4996375;28;20061;-80
2022/07/11 05:57:26;;;;;;;6.85;1.88;;;15.00;99.90;;;;;;4992039;28;20034;-78
2022/07/11 05:59:51;;;;;;;7.75;1.50;;;15.00;99.90;;;;;;4997548;28;20084;-76
2022/07/11 06:02:18;;;;;;;7.85;1.70;;;15.10;99.90;;;;;;4987286;28;20120;-80
2022/07/11 06:04:44;;;;;;;7.15;1.33;;;15.10;99.90;;;;;;4989264;28;20046;-78
2022/07/11 06:07:10;;;;;;;3.67;1.10;;;15.10;99.90;;;;;;4994495;28;20121;-78
2022/07/11 06:09:36;;;;;;;4.18;1.52;;;15.60;99.90;;;;;;4996070;28;20026;-79
2022/07/11 06:12:03;;;;;;;4.13;1.50;;;15.80;99.90;;;;;;4994454;28;20026;-77
2022/07/11 06:14:29;;;;;;;7.63;1.73;;;15.60;99.90;;;;;;4979625;28;20168;-77
2022/07/11 06:16:55;;;;;;;5.57;1.83;;;15.60;99.90;;;;;;4995767;28;20175;-78
2022/07/11 06:19:21;;;;;;;5.63;1.73;;;15.60;99.90;;;;;;4980568;28;20050;-78
2022/07/11 06:21:48;;;;;;;6.18;1.40;;;15.60;99.90;;;;;;4998976;28;20053;-78
2022/07/11 06:24:14;;;;;;;2.80;1.20;;;15.60;99.90;;;;;;5000626;28;20041;-79
2022/07/11 06:26:39;;;;;;;6.95;1.20;;;15.60;99.90;;;;;;4996230;28;20045;-80
2022/07/11 06:29:07;;;;;;;3.75;1.33;;;15.70;99.90;;;;;;5003144;28;20014;-78
2022/07/11 06:31:35;;;;;;;4.80;1.20;;;15.80;99.90;;;;;;4985641;28;20028;-77
2022/07/11 06:34:01;;;;;;;7.53;1.70;;;15.80;99.90;;;;;;5002496;28;20486;-78
2022/07/11 06:36:27;;;;;;;6.10;1.42;;;15.80;99.90;;;;;;4997701;28;20080;-79
2022/07/11 06:38:53;;;;;;;6.45;1.40;;;15.80;99.90;;;;;;5003468;28;20050;-78
2022/07/11 06:41:19;;;;;;;4.65;1.50;;;15.90;99.90;;;;;;4998799;28;20042;-77
2022/07/11 06:43:47;;;;;;;9.63;1.73;;;15.90;99.90;;;;;;5003236;28;20027;-79
2022/07/11 06:46:15;;;;;;;7.40;1.77;;;16.00;99.90;;;;;;4993062;28;20522;-79
2022/07/11 06:48:41;;;;;;;7.07;1.63;;;16.00;99.90;;;;;;5006766;28;20037;-79
2022/07/11 06:51:07;;;;;;;2.17;1.17;;;16.10;99.90;;;;;;5002171;28;20029;-77
2022/07/11 06:53:33;;;;;;;6.40;1.63;;;16.10;99.90;;;;;;4997001;28;20030;-80
2022/07/11 06:55:59;;;;;;;6.50;1.15;;;16.10;99.90;;;;;;4998929;28;20114;-77
2022/07/11 06:58:33;;;;;;;4.10;1.20;;;16.20;99.90;;;;;;4998943;28;20053;-79
2022/07/11 07:01:04;;;;;;;5.47;1.45;;;16.20;99.90;;;;;;4996038;28;20027;-84
2022/07/11 07:03:32;;;;;;;7.85;1.05;;;16.30;99.90;;;;;;4993638;28;20041;-77
2022/07/11 07:05:58;;;;;;;5.05;1.13;;;16.30;99.90;;;;;;4978088;28;20034;-77
2022/07/11 07:08:26;;;;;;;4.75;1.55;;;16.30;99.90;;;;;;4994170;28;20030;-78
2022/07/11 07:10:53;;;;;;;8.45;1.40;;;16.30;99.90;;;;;;5001551;28;20089;-77
2022/07/11 07:13:20;;;;;;;3.80;1.00;;;16.30;99.90;;;;;;4997936;28;20378;-79
2022/07/11 07:15:47;;;;;;;4.40;1.17;;;16.30;99.90;;;;;;4997429;28;20022;-76
2022/07/11 07:18:13;;;;;;;3.90;0.95;;;16.30;99.90;;;;;;4978195;28;20037;-79
2022/07/11 07:20:44;;;;;;;7.65;1.00;;;16.40;99.90;;;;;;4998211;28;20108;-76
2022/07/11 07:23:10;;;;;;;6.38;1.30;;;16.40;99.90;;;;;;4996917;28;20062;-76
2022/07/11 07:25:37;;;;;;;3.30;0.75;;;16.50;99.90;;;;;;4995686;28;20080;-76
2022/07/11 07:28:05;;;;;;;4.10;1.33;;;16.60;99.90;;;;;;4998197;28;20026;-77
2022/07/11 07:30:31;;;;;;;3.47;1.17;;;16.60;99.90;;;;;;5001266;28;20498;-77
2022/07/11 07:32:57;;;;;;;3.40;1.05;;;16.60;99.90;;;;;;4999719;28;20037;-78
2022/07/11 07:35:23;;;;;;;4.03;1.00;;;16.60;99.90;;;;;;4997973;28;20022;-76
2022/07/11 07:37:49;;;;;;;5.07;1.10;;;16.60;99.90;;;;;;4985894;28;20030;-78
2022/07/11 07:40:14;;;;;;;4.22;1.25;;;16.60;99.90;;;;;;4997647;28;20242;-75
2022/07/11 07:42:40;;;;;;;3.05;0.90;;;16.70;99.90;;;;;;4994503;28;20398;-78
2022/07/11 07:45:06;;;;;;;5.35;1.00;;;16.80;99.90;;;;;;4998345;28;20049;-77
2022/07/11 07:47:34;;;;;;;2.33;0.93;;;16.80;99.90;;;;;;5001178;28;20490;-77
2022/07/11 07:50:00;;;;;;;5.05;1.15;;;16.80;99.90;;;;;;5004184;28;20026;-76
2022/07/11 07:52:26;;;;;;;3.42;1.08;;;16.80;99.90;;;;;;5002262;28;20402;-78
2022/07/11 07:54:51;;;;;;;5.40;1.55;;;17.00;99.90;;;;;;4980943;28;20038;-78
2022/07/11 07:57:17;;;;;;;5.18;1.00;;;17.10;99.90;;;;;;5006506;28;20125;-72
2022/07/11 07:59:42;;;;;;;4.28;0.93;;;17.10;99.90;;;;;;4998340;28;20034;-74
2022/07/11 08:02:08;;;;;;;4.13;0.90;;;17.30;99.90;;;;;;4992403;28;20029;-74
2022/07/11 08:04:34;;;;;;;3.67;1.00;;;17.50;99.90;;;;;;4994607;28;20080;-70
2022/07/11 08:07:00;;;;;;;5.93;1.10;;;17.60;99.90;;;;;;4998343;28;20057;-70
2022/07/11 08:09:26;;;;;;;4.55;1.52;;;17.60;99.90;;;;;;4997861;28;20030;-71
2022/07/11 08:11:51;;;;;;;3.97;1.15;;;17.70;99.90;;;;;;4993594;28;20057;-72
2022/07/11 08:14:17;;;;;;;2.72;1.00;;;17.80;99.90;;;;;;4989166;28;20022;-72
2022/07/11 08:16:43;;;;;;;4.22;1.13;;;17.90;99.90;;;;;;5000093;28;20118;-71
2022/07/11 08:19:11;;;;;;;6.28;1.33;;;17.90;99.90;;;;;;4996214;28;20104;-71
2022/07/11 08:21:37;;;;;;;3.78;1.30;;;17.80;99.90;;;;;;4981971;28;20038;-72
2022/07/11 08:24:03;;;;;;;4.63;1.35;;;17.80;99.90;;;;;;4995874;28;20056;-71
2022/07/11 08:26:29;;;;;;;3.90;1.10;;;17.70;99.90;;;;;;4991023;28;20026;-72
2022/07/11 08:28:55;;;;;;;4.43;1.10;;;17.60;99.90;;;;;;4978620;28;20034;-76
2022/07/11 08:31:21;;;;;;;6.78;1.10;;;17.60;99.90;;;;;;4991432;28;20430;-74
2022/07/11 08:33:46;;;;;;;3.80;1.00;;;17.60;99.90;;;;;;4996065;28;20106;-72
2022/07/11 08:36:12;;;;;;;3.47;1.00;;;17.60;99.90;;;;;;4999215;28;20034;-75
2022/07/11 08:38:39;;;;;;;4.18;1.05;;;17.60;99.90;;;;;;4994202;28;20034;-75
2022/07/11 08:41:05;;;;;;;1.88;1.00;;;17.70;99.90;;;;;;4983914;28;20096;-76
2022/07/11 08:43:31;;;;;;;4.47;1.10;;;17.80;99.90;;;;;;4990518;28;20038;-76
2022/07/11 08:45:58;;;;;;;2.10;0.82;;;18.00;99.90;;;;;;4989738;28;20038;-75
2022/07/11 08:48:24;;;;;;;4.78;0.90;;;18.10;99.90;;;;;;4995822;28;20402;-74
2022/07/11 08:50:52;;;;;;;3.50;1.00;;;18.20;99.90;;;;;;4987825;28;20030;-74
2022/07/11 08:53:18;;;;;;;4.30;1.27;;;18.20;99.90;;;;;;4985185;28;20048;-75
2022/07/11 08:55:44;;;;;;;5.53;2.28;;;18.20;99.90;;;;;;4986671;28;20022;-75
2022/07/11 08:58:10;;;;;;;3.35;1.10;;;18.20;99.90;;;;;;4989803;28;20547;-75
2022/07/11 09:00:37;;;;;;;4.03;1.10;;;18.20;99.90;;;;;;4987661;28;20042;-75
2022/07/11 09:03:05;;;;;;;2.63;0.82;;;18.10;99.90;;;;;;4981110;28;20040;-74
2022/07/11 09:05:31;;;;;;;3.25;1.00;;;18.20;99.90;;;;;;4987171;28;20035;-76
2022/07/11 09:07:57;;;;;;;3.67;1.05;;;18.20;99.90;;;;;;4985324;28;20030;-74
2022/07/11 09:10:23;;;;;;;2.22;1.00;;;18.20;99.90;;;;;;4985246;28;20034;-72
2022/07/11 09:13:17;;;;;;;3.50;1.05;;;18.40;99.90;;;;;;4964983;28;20034;-74
2022/07/11 09:15:49;;;;;;;2.65;0.80;;;18.50;99.90;;;;;;4966223;28;20475;-73
2022/07/11 09:18:34;;;;;;;3.08;1.08;;;18.50;99.90;;;;;;4990100;28;20092;-75
2022/07/11 09:26:42;;;;;;;2.80;1.00;;;18.70;99.90;;;;;;4983956;28;20053;-75
2022/07/11 09:29:13;;;;;;;4.03;0.70;;;19.00;99.90;;;;;;4982087;28;20034;-77
2022/07/11 09:31:42;;;;;;;2.22;0.90;;;18.90;99.90;;;;;;4986303;28;20992;-74
2022/07/11 09:34:13;;;;;;;3.45;1.30;;;18.90;99.90;;;;;;4989622;28;20030;-78
2022/07/11 09:36:54;;;;;;;4.88;1.27;;;19.00;99.90;;;;;;4987813;28;20105;-76
2022/07/11 09:39:24;;;;;;;2.22;1.10;;;19.10;99.90;;;;;;4990985;28;20030;-75
2022/07/11 09:41:54;;;;;;;2.78;0.90;;;19.20;99.90;;;;;;4986866;28;20072;-75
2022/07/11 09:44:22;;;;;;;5.00;1.00;;;19.20;99.90;;;;;;4989911;28;20029;-75
2022/07/11 09:46:50;;;;;;;9.05;1.27;;;19.10;99.90;;;;;;4986606;28;20033;-75
2022/07/11 09:49:28;;;;;;;2.65;0.73;;;19.10;99.90;;;;;;4989346;28;20033;-76
2022/07/11 09:51:54;;;;;;;4.78;0.70;;;19.20;99.90;;;;;;4988384;28;20030;-77
2022/07/11 09:54:20;;;;;;;2.45;0.77;;;19.40;99.90;;;;;;4986383;28;20027;-77
2022/07/11 09:56:51;;;;;;;3.60;0.90;;;19.60;99.90;;;;;;4988664;28;20021;-75
2022/07/11 09:59:18;;;;;;;3.30;0.90;;;19.80;99.90;;;;;;4990769;28;20029;-77
2022/07/11 10:01:44;;;;;;;3.85;1.13;;;19.90;99.90;;;;;;4970179;28;20034;-76
2022/07/11 10:04:11;;;;;;;2.33;1.00;;;19.70;99.90;;;;;;4989557;28;20145;-75
2022/07/11 10:06:38;;;;;;;4.10;0.90;;;19.60;99.90;;;;;;4988096;28;20033;-76
2022/07/11 10:09:05;;;;;;;5.97;1.33;;;19.60;99.90;;;;;;4991665;28;20030;-77
2022/07/11 10:11:35;;;;;;;2.65;0.80;;;19.70;99.90;;;;;;4994084;28;20080;-75
2022/07/11 10:14:03;;;;;;;1.92;0.82;;;19.80;99.90;;;;;;4999971;28;20034;-75
2022/07/11 10:16:40;;;;;;;5.80;1.25;;;19.90;99.90;;;;;;5004139;28;20105;-76
2022/07/11 10:19:18;;;;;;;2.15;1.10;;;20.00;99.90;;;;;;5003151;28;20026;-76
2022/07/11 10:21:59;;;;;;;2.80;0.80;;;19.90;99.90;;;;;;5001355;28;20397;-75
2022/07/11 10:24:51;;;;;;;3.40;1.15;;;20.00;99.90;;;;;;4998453;28;20038;-75
2022/07/11 10:27:32;;;;;;;3.50;1.20;;;20.00;99.90;;;;;;5000628;28;20486;-76
2022/07/11 10:30:01;;;;;;;2.45;0.70;;;20.20;99.90;;;;;;4999110;28;20113;-76
2022/07/11 10:32:27;;;;;;;2.28;0.77;;;20.30;99.90;;;;;;4997912;28;20018;-73
2022/07/11 10:35:10;;;;;;;0.95;0.65;;;20.20;99.60;;;;;;4999597;28;20026;-76
2022/07/11 10:37:51;;;;;;;2.63;1.35;;;20.10;99.40;;;;;;5000094;28;20132;-76
2022/07/11 10:40:43;;;;;;;3.78;1.30;;;20.20;99.90;;;;;;4998685;28;20026;-77
2022/07/11 10:43:12;;;;;;;2.22;0.93;;;20.20;99.90;;;;;;4999082;28;20025;-82
2022/07/11 10:46:00;;;;;;;3.83;1.00;;;20.10;99.90;;;;;;4997471;28;20076;-78
2022/07/11 10:48:28;;;;;;;2.55;1.00;;;20.10;99.90;;;;;;5002327;28;20454;-77
2022/07/11 10:51:03;;;;;;;1.73;1.27;;;20.10;99.90;;;;;;4985880;28;20033;-78
2022/07/11 10:53:33;;;;;;;2.53;0.90;;;20.30;99.90;;;;;;4995052;28;20031;-78
2022/07/11 10:56:23;;;;;;;3.90;1.00;;;20.30;99.90;;;;;;5000670;28;20026;-77
2022/07/11 10:59:15;;;;;;;2.73;0.90;;;20.30;99.90;;;;;;5006443;28;20517;-77
2022/07/11 11:02:02;;;;;;;1.88;0.90;;;20.40;99.90;;;;;;5000193;28;20110;-76
2022/07/11 11:04:49;;;;;;;3.10;1.00;;;20.50;99.90;;;;;;5002530;28;20068;-77
2022/07/11 11:07:41;;;;;;;4.95;1.13;;;20.50;99.90;;;;;;5004670;28;20037;-77
2022/07/11 11:10:30;;;;;;;3.83;1.00;;;20.40;99.90;;;;;;5006345;28;20022;-77
2022/07/11 11:13:05;;;;;;;2.30;1.00;;;20.30;99.90;;;;;;5001954;28;21456;-78
2022/07/11 11:15:44;;;;;;;2.88;1.40;;;20.10;99.90;;;;;;5005198;28;20026;-77
2022/07/11 11:18:22;;;;;;;3.83;1.27;;;20.10;99.90;;;;;;5003881;28;20038;-77
2022/07/11 11:21:00;;;;;;;5.00;1.30;;;20.10;99.90;;;;;;5002552;28;20121;-76
2022/07/11 11:23:30;;;;;;;2.65;1.33;;;20.20;99.90;;;;;;5003710;28;20110;-77
2022/07/11 11:26:06;;;;;;;3.70;1.30;;;20.10;99.90;;;;;;5005138;28;20030;-77
2022/07/11 11:28:34;;;;;;;2.47;1.55;;;20.10;99.90;;;;;;5003838;28;20086;-76
2022/07/11 11:31:05;;;;;;;1.95;1.17;;;21.60;99.90;;;;;;5003075;28;20026;-77
2022/07/11 11:33:36;;;;;;;2.05;1.25;;;22.90;96.30;;;;;;5005423;28;20014;-78
2022/07/11 11:36:08;;;;;;;2.90;2.35;;;22.80;94.30;;;;;;5005747;28;20050;-76
2022/07/11 11:38:35;;;;;;;4.60;1.60;;;22.20;95.20;;;;;;5002721;28;20049;-78
2022/07/11 11:41:01;;;;;;;4.18;1.30;;;21.40;96.80;;;;;;5003542;28;20023;-77
2022/07/11 11:43:27;;;;;;;4.03;1.55;;;21.00;98.00;;;;;;5006638;28;20140;-77
2022/07/11 11:45:54;;;;;;;1.40;1.30;;;21.60;98.80;;;;;;5002935;28;20028;-77
2022/07/11 11:48:27;;;;;;;1.98;1.02;;;23.90;96.30;;;;;;5003658;28;20502;-77
2022/07/11 11:51:01;;;;;;;2.88;1.02;;;26.00;90.90;;;;;;5005506;28;20130;-79
2022/07/11 11:53:26;;;;;;;1.13;0.88;;;28.00;77.60;;;;;;4987501;28;20035;-78
2022/07/11 11:55:52;;;;;;;12.52;6.88;;;28.40;70.00;;;;;;4986718;28;20109;-79
2022/07/11 11:58:18;;;;;;;8.13;5.00;;;27.90;67.80;;;;;;5022268;28;20019;-79
2022/07/11 12:00:54;;;;;;;7.63;3.97;;;27.60;67.70;;;;;;5004894;28;20018;-78
2022/07/11 12:03:20;;;;;;;8.45;4.85;;;27.60;65.70;;;;;;5004981;28;20096;-81
2022/07/11 12:05:58;;;;;;;5.03;2.85;;;27.40;67.60;;;;;;5007159;28;20064;-78
2022/07/11 12:08:29;;;;;;;4.38;2.47;;;27.70;66.00;;;;;;5003958;28;20034;-79
2022/07/11 12:10:56;;;;;;;2.08;1.33;;;26.80;65.60;;;;;;5004477;28;20037;-78
2022/07/11 12:13:22;;;;;;;1.67;1.50;;;26.30;64.00;;;;;;4985122;28;20088;-78
2022/07/11 12:18:38;;;;;;;5.07;1.35;;;25.50;67.30;;;;;;5005388;28;20041;-78
2022/07/11 12:21:11;;;;;;;1.75;1.10;;;25.00;67.60;;;;;;5005101;28;20025;-78
2022/07/11 12:23:38;;;;;;;3.72;1.30;;;24.30;70.60;;;;;;4987426;28;20112;-77
2022/07/11 12:26:04;;;;;;;3.35;1.20;;;23.90;73.30;;;;;;5004691;28;20437;-77
2022/07/11 12:28:31;;;;;;;1.83;1.02;;;23.80;74.40;;;;;;5002315;28;20029;-77
2022/07/11 12:30:57;;;;;;;1.30;1.20;;;24.20;76.30;;;;;;4985742;28;20034;-77
2022/07/11 12:33:24;;;;;;;1.17;1.08;;;25.30;74.70;;;;;;5024290;28;20026;-78
2022/07/11 12:36:01;;;;;;;1.55;1.00;;;26.50;70.50;;;;;;5004059;28;20022;-78
2022/07/11 12:38:51;;;;;;;2.20;0.98;;;27.40;66.30;;;;;;5006024;28;20030;-78
2022/07/11 12:41:17;;;;;;;2.03;0.80;;;27.90;65.10;;;;;;5005463;28;20056;-77
2022/07/11 12:46:33;;;;;;;2.38;0.60;;;28.50;64.90;;;;;;5012991;28;20105;-76
2022/07/11 12:49:04;;;;;;;2.08;0.90;;;28.70;60.30;;;;;;5018092;28;20034;-78
2022/07/11 12:51:32;;;;;;;1.05;0.95;;;27.80;63.30;;;;;;4998140;28;20439;-77
2022/07/11 12:54:27;;;;;;;1.88;0.73;;;27.20;62.50;;;;;;4997888;28;20372;-77
2022/07/11 12:56:57;;;;;;;1.67;0.77;;;27.20;64.30;;;;;;5000953;28;20022;-77
2022/07/11 12:59:24;;;;;;;2.00;0.60;;;27.60;63.60;;;;;;4997901;28;20033;-78
2022/07/11 13:01:58;;;;;;;0.88;0.50;;;28.20;60.80;;;;;;4999010;28;20029;-78
2022/07/11 13:04:37;;;;;;;1.13;0.70;;;28.90;61.70;;;;;;4999314;28;20391;-78
2022/07/11 13:10:25;;;;;;;5.35;1.15;;;29.90;56.10;;;;;;4999272;28;20094;-77